sensor_id;sensor_type;location;lat;lon;timestamp;P1;durP1;ratioP1;P2;durP2;ratioP2
54145;SDS011;65909;49.422;7.738;2023-08-08T00:02:00;2.23;;;1.40;;
54145;SDS011;65909;49.422;7.738;2023-08-08T00:04:25;5.10;;;1.83;;
54145;SDS011;65909;49.422;7.738;2023-08-08T00:06:50;2.00;;;1.40;;
54145;SDS011;65909;49.422;7.738;2023-08-08T00:09:15;4.60;;;2.17;;
54145;SDS011;65909;49.422;7.738;2023-08-08T00:11:41;1.98;;;1.50;;
54145;SDS011;65909;49.422;7.738;2023-08-08T00:14:06;2.83;;;1.60;;
54145;SDS011;65909;49.422;7.738;2023-08-08T00:16:31;3.47;;;2.13;;
54145;SDS011;65909;49.422;7.738;2023-08-08T00:18:56;5.00;;;1.80;;
54145;SDS011;65909;49.422;7.738;2023-08-08T00:21:22;2.13;;;1.40;;
54145;SDS011;65909;49.422;7.738;2023-08-08T00:23:47;2.28;;;1.42;;
54145;SDS011;65909;49.422;7.738;2023-08-08T00:26:12;2.70;;;1.70;;
54145;SDS011;65909;49.422;7.738;2023-08-08T00:28:37;1.87;;;1.53;;
54145;SDS011;65909;49.422;7.738;2023-08-08T00:31:03;2.53;;;1.50;;
54145;SDS011;65909;49.422;7.738;2023-08-08T00:33:28;2.57;;;1.40;;
54145;SDS011;65909;49.422;7.738;2023-08-08T00:35:53;2.30;;;1.20;;
54145;SDS011;65909;49.422;7.738;2023-08-08T00:38:18;4.00;;;1.60;;
54145;SDS011;65909;49.422;7.738;2023-08-08T00:40:44;1.67;;;1.30;;
54145;SDS011;65909;49.422;7.738;2023-08-08T00:43:09;2.15;;;1.58;;
54145;SDS011;65909;49.422;7.738;2023-08-08T00:45:34;3.70;;;1.70;;
54145;SDS011;65909;49.422;7.738;2023-08-08T00:47:59;2.45;;;1.23;;
54145;SDS011;65909;49.422;7.738;2023-08-08T00:50:24;2.77;;;1.43;;
54145;SDS011;65909;49.422;7.738;2023-08-08T00:52:50;2.80;;;1.60;;
54145;SDS011;65909;49.422;7.738;2023-08-08T00:55:15;2.35;;;1.65;;
54145;SDS011;65909;49.422;7.738;2023-08-08T00:57:40;3.03;;;1.67;;
54145;SDS011;65909;49.422;7.738;2023-08-08T01:00:06;4.07;;;1.65;;
54145;SDS011;65909;49.422;7.738;2023-08-08T01:02:32;4.93;;;1.50;;
54145;SDS011;65909;49.422;7.738;2023-08-08T01:04:57;3.03;;;1.75;;
54145;SDS011;65909;49.422;7.738;2023-08-08T01:07:29;2.30;;;1.23;;
54145;SDS011;65909;49.422;7.738;2023-08-08T01:10:05;2.20;;;1.33;;
54145;SDS011;65909;49.422;7.738;2023-08-08T01:12:33;3.97;;;1.83;;
54145;SDS011;65909;49.422;7.738;2023-08-08T01:14:59;3.13;;;1.75;;
54145;SDS011;65909;49.422;7.738;2023-08-08T01:17:25;2.10;;;1.60;;
54145;SDS011;65909;49.422;7.738;2023-08-08T01:19:51;1.55;;;1.20;;
54145;SDS011;65909;49.422;7.738;2023-08-08T01:22:21;3.22;;;1.70;;
54145;SDS011;65909;49.422;7.738;2023-08-08T01:24:48;4.63;;;1.52;;
54145;SDS011;65909;49.422;7.738;2023-08-08T01:27:13;2.45;;;1.55;;
54145;SDS011;65909;49.422;7.738;2023-08-08T01:29:38;3.08;;;1.60;;
54145;SDS011;65909;49.422;7.738;2023-08-08T01:32:04;5.75;;;1.60;;
54145;SDS011;65909;49.422;7.738;2023-08-08T01:34:29;3.67;;;1.55;;
54145;SDS011;65909;49.422;7.738;2023-08-08T01:36:55;3.00;;;1.50;;
54145;SDS011;65909;49.422;7.738;2023-08-08T01:39:22;3.45;;;1.52;;
54145;SDS011;65909;49.422;7.738;2023-08-08T01:41:50;1.85;;;1.40;;
54145;SDS011;65909;49.422;7.738;2023-08-08T01:44:15;3.20;;;1.92;;
54145;SDS011;65909;49.422;7.738;2023-08-08T01:46:42;3.55;;;1.50;;
54145;SDS011;65909;49.422;7.738;2023-08-08T01:49:07;1.93;;;1.60;;
54145;SDS011;65909;49.422;7.738;2023-08-08T01:51:33;3.57;;;2.33;;
54145;SDS011;65909;49.422;7.738;2023-08-08T01:53:58;3.73;;;1.63;;
54145;SDS011;65909;49.422;7.738;2023-08-08T01:56:23;2.80;;;1.70;;
54145;SDS011;65909;49.422;7.738;2023-08-08T01:58:48;1.93;;;1.43;;
54145;SDS011;65909;49.422;7.738;2023-08-08T02:01:13;3.37;;;1.60;;
54145;SDS011;65909;49.422;7.738;2023-08-08T02:03:39;2.50;;;1.50;;
54145;SDS011;65909;49.422;7.738;2023-08-08T02:06:04;2.90;;;2.10;;
54145;SDS011;65909;49.422;7.738;2023-08-08T02:08:29;2.67;;;1.67;;
54145;SDS011;65909;49.422;7.738;2023-08-08T02:10:54;3.10;;;1.87;;
54145;SDS011;65909;49.422;7.738;2023-08-08T02:13:19;3.33;;;2.00;;
54145;SDS011;65909;49.422;7.738;2023-08-08T02:15:45;2.97;;;1.63;;
54145;SDS011;65909;49.422;7.738;2023-08-08T02:18:10;2.13;;;1.80;;
54145;SDS011;65909;49.422;7.738;2023-08-08T02:20:36;4.55;;;2.13;;
54145;SDS011;65909;49.422;7.738;2023-08-08T02:23:01;4.38;;;2.00;;
54145;SDS011;65909;49.422;7.738;2023-08-08T02:25:26;4.03;;;2.00;;
54145;SDS011;65909;49.422;7.738;2023-08-08T02:27:51;4.03;;;1.63;;
54145;SDS011;65909;49.422;7.738;2023-08-08T02:30:17;3.07;;;1.90;;
54145;SDS011;65909;49.422;7.738;2023-08-08T02:32:42;3.47;;;1.80;;
54145;SDS011;65909;49.422;7.738;2023-08-08T02:35:07;2.27;;;1.90;;
54145;SDS011;65909;49.422;7.738;2023-08-08T02:37:32;3.38;;;2.15;;
54145;SDS011;65909;49.422;7.738;2023-08-08T02:39:58;3.17;;;1.70;;
54145;SDS011;65909;49.422;7.738;2023-08-08T02:42:23;3.00;;;2.07;;
54145;SDS011;65909;49.422;7.738;2023-08-08T02:44:48;3.03;;;1.77;;
54145;SDS011;65909;49.422;7.738;2023-08-08T02:47:13;4.17;;;1.83;;
54145;SDS011;65909;49.422;7.738;2023-08-08T02:49:38;2.57;;;1.90;;
54145;SDS011;65909;49.422;7.738;2023-08-08T02:52:04;2.80;;;1.87;;
54145;SDS011;65909;49.422;7.738;2023-08-08T02:54:29;2.40;;;1.77;;
54145;SDS011;65909;49.422;7.738;2023-08-08T02:56:54;5.47;;;1.83;;
54145;SDS011;65909;49.422;7.738;2023-08-08T02:59:19;4.07;;;2.37;;
54145;SDS011;65909;49.422;7.738;2023-08-08T03:01:45;4.07;;;2.33;;
54145;SDS011;65909;49.422;7.738;2023-08-08T03:04:12;2.35;;;1.98;;
54145;SDS011;65909;49.422;7.738;2023-08-08T03:06:37;3.63;;;1.73;;
54145;SDS011;65909;49.422;7.738;2023-08-08T03:09:02;3.70;;;2.23;;
54145;SDS011;65909;49.422;7.738;2023-08-08T03:11:27;2.87;;;2.03;;
54145;SDS011;65909;49.422;7.738;2023-08-08T03:13:53;4.20;;;2.03;;
54145;SDS011;65909;49.422;7.738;2023-08-08T03:16:18;3.43;;;1.97;;
54145;SDS011;65909;49.422;7.738;2023-08-08T03:18:43;3.23;;;2.10;;
54145;SDS011;65909;49.422;7.738;2023-08-08T03:21:08;2.00;;;1.80;;
54145;SDS011;65909;49.422;7.738;2023-08-08T03:23:33;5.47;;;1.90;;
54145;SDS011;65909;49.422;7.738;2023-08-08T03:25:58;3.80;;;1.80;;
54145;SDS011;65909;49.422;7.738;2023-08-08T03:28:24;5.03;;;1.83;;
54145;SDS011;65909;49.422;7.738;2023-08-08T03:30:49;4.35;;;2.13;;
54145;SDS011;65909;49.422;7.738;2023-08-08T03:33:14;2.77;;;2.40;;
54145;SDS011;65909;49.422;7.738;2023-08-08T03:35:40;4.10;;;2.37;;
54145;SDS011;65909;49.422;7.738;2023-08-08T03:38:05;6.30;;;2.63;;
54145;SDS011;65909;49.422;7.738;2023-08-08T03:40:30;3.57;;;2.40;;
54145;SDS011;65909;49.422;7.738;2023-08-08T03:42:55;3.70;;;2.30;;
54145;SDS011;65909;49.422;7.738;2023-08-08T03:45:20;3.93;;;2.07;;
54145;SDS011;65909;49.422;7.738;2023-08-08T03:47:46;2.60;;;2.10;;
54145;SDS011;65909;49.422;7.738;2023-08-08T03:50:11;2.87;;;2.10;;
54145;SDS011;65909;49.422;7.738;2023-08-08T03:52:36;5.18;;;2.35;;
54145;SDS011;65909;49.422;7.738;2023-08-08T03:55:03;2.45;;;2.15;;
54145;SDS011;65909;49.422;7.738;2023-08-08T03:57:28;4.72;;;2.40;;
54145;SDS011;65909;49.422;7.738;2023-08-08T03:59:53;3.03;;;2.47;;
54145;SDS011;65909;49.422;7.738;2023-08-08T04:02:19;3.43;;;2.40;;
54145;SDS011;65909;49.422;7.738;2023-08-08T04:04:44;4.30;;;2.33;;
54145;SDS011;65909;49.422;7.738;2023-08-08T04:07:09;5.43;;;2.23;;
54145;SDS011;65909;49.422;7.738;2023-08-08T04:09:34;2.73;;;2.23;;
54145;SDS011;65909;49.422;7.738;2023-08-08T04:11:59;3.03;;;2.40;;
54145;SDS011;65909;49.422;7.738;2023-08-08T04:14:24;3.83;;;2.37;;
54145;SDS011;65909;49.422;7.738;2023-08-08T04:16:50;3.70;;;2.50;;
54145;SDS011;65909;49.422;7.738;2023-08-08T04:19:15;2.60;;;2.40;;
54145;SDS011;65909;49.422;7.738;2023-08-08T04:21:40;3.90;;;2.60;;
54145;SDS011;65909;49.422;7.738;2023-08-08T04:24:06;3.72;;;2.72;;
54145;SDS011;65909;49.422;7.738;2023-08-08T04:26:32;3.38;;;2.40;;
54145;SDS011;65909;49.422;7.738;2023-08-08T04:28:58;4.23;;;2.40;;
54145;SDS011;65909;49.422;7.738;2023-08-08T04:31:23;5.30;;;2.47;;
54145;SDS011;65909;49.422;7.738;2023-08-08T04:33:50;5.53;;;2.70;;
54145;SDS011;65909;49.422;7.738;2023-08-08T04:36:15;5.30;;;2.92;;
54145;SDS011;65909;49.422;7.738;2023-08-08T04:38:41;4.20;;;2.60;;
54145;SDS011;65909;49.422;7.738;2023-08-08T04:41:06;3.87;;;2.57;;
54145;SDS011;65909;49.422;7.738;2023-08-08T04:43:31;2.87;;;2.37;;
54145;SDS011;65909;49.422;7.738;2023-08-08T04:45:56;3.33;;;2.60;;
54145;SDS011;65909;49.422;7.738;2023-08-08T04:48:21;3.57;;;2.40;;
54145;SDS011;65909;49.422;7.738;2023-08-08T04:50:47;2.83;;;2.30;;
54145;SDS011;65909;49.422;7.738;2023-08-08T04:53:12;3.10;;;2.17;;
54145;SDS011;65909;49.422;7.738;2023-08-08T04:55:37;4.25;;;2.40;;
54145;SDS011;65909;49.422;7.738;2023-08-08T04:58:02;3.80;;;2.60;;
54145;SDS011;65909;49.422;7.738;2023-08-08T05:00:28;2.97;;;2.17;;
54145;SDS011;65909;49.422;7.738;2023-08-08T05:02:53;3.50;;;2.60;;
54145;SDS011;65909;49.422;7.738;2023-08-08T05:05:18;5.43;;;2.70;;
54145;SDS011;65909;49.422;7.738;2023-08-08T05:07:43;2.77;;;2.43;;
54145;SDS011;65909;49.422;7.738;2023-08-08T05:10:08;6.23;;;2.70;;
54145;SDS011;65909;49.422;7.738;2023-08-08T05:12:34;4.05;;;2.70;;
54145;SDS011;65909;49.422;7.738;2023-08-08T05:14:59;3.93;;;2.33;;
54145;SDS011;65909;49.422;7.738;2023-08-08T05:17:24;2.83;;;1.95;;
54145;SDS011;65909;49.422;7.738;2023-08-08T05:19:49;4.87;;;2.77;;
54145;SDS011;65909;49.422;7.738;2023-08-08T05:22:14;4.60;;;2.40;;
54145;SDS011;65909;49.422;7.738;2023-08-08T05:24:39;4.03;;;2.23;;
54145;SDS011;65909;49.422;7.738;2023-08-08T05:27:05;2.80;;;2.30;;
54145;SDS011;65909;49.422;7.738;2023-08-08T05:29:30;4.37;;;2.27;;
54145;SDS011;65909;49.422;7.738;2023-08-08T05:31:55;3.83;;;1.97;;
54145;SDS011;65909;49.422;7.738;2023-08-08T05:34:21;3.50;;;2.13;;
54145;SDS011;65909;49.422;7.738;2023-08-08T05:36:46;3.47;;;2.38;;
54145;SDS011;65909;49.422;7.738;2023-08-08T05:39:11;2.87;;;2.07;;
54145;SDS011;65909;49.422;7.738;2023-08-08T05:41:37;4.00;;;2.10;;
54145;SDS011;65909;49.422;7.738;2023-08-08T05:44:02;2.83;;;2.03;;
54145;SDS011;65909;49.422;7.738;2023-08-08T05:46:27;7.55;;;2.33;;
54145;SDS011;65909;49.422;7.738;2023-08-08T05:48:52;2.60;;;1.70;;
54145;SDS011;65909;49.422;7.738;2023-08-08T05:51:17;2.13;;;1.48;;
54145;SDS011;65909;49.422;7.738;2023-08-08T05:53:43;2.67;;;1.60;;
54145;SDS011;65909;49.422;7.738;2023-08-08T05:56:08;5.40;;;1.50;;
54145;SDS011;65909;49.422;7.738;2023-08-08T05:58:36;2.08;;;1.80;;
54145;SDS011;65909;49.422;7.738;2023-08-08T06:01:02;2.75;;;2.03;;
54145;SDS011;65909;49.422;7.738;2023-08-08T06:03:31;2.38;;;1.60;;
54145;SDS011;65909;49.422;7.738;2023-08-08T06:05:56;2.10;;;1.57;;
54145;SDS011;65909;49.422;7.738;2023-08-08T06:08:21;3.00;;;1.63;;
54145;SDS011;65909;49.422;7.738;2023-08-08T06:10:46;3.57;;;1.40;;
54145;SDS011;65909;49.422;7.738;2023-08-08T06:13:11;2.50;;;1.43;;
54145;SDS011;65909;49.422;7.738;2023-08-08T06:15:37;2.22;;;1.60;;
54145;SDS011;65909;49.422;7.738;2023-08-08T06:18:02;3.93;;;2.30;;
54145;SDS011;65909;49.422;7.738;2023-08-08T06:20:27;4.35;;;1.75;;
54145;SDS011;65909;49.422;7.738;2023-08-08T06:22:53;3.08;;;1.80;;
54145;SDS011;65909;49.422;7.738;2023-08-08T06:25:18;3.03;;;1.40;;
54145;SDS011;65909;49.422;7.738;2023-08-08T06:27:44;2.90;;;1.50;;
54145;SDS011;65909;49.422;7.738;2023-08-08T06:30:09;1.93;;;1.40;;
54145;SDS011;65909;49.422;7.738;2023-08-08T06:32:34;1.83;;;1.27;;
54145;SDS011;65909;49.422;7.738;2023-08-08T06:35:00;3.33;;;1.40;;
54145;SDS011;65909;49.422;7.738;2023-08-08T06:37:25;2.60;;;1.27;;
54145;SDS011;65909;49.422;7.738;2023-08-08T06:39:50;3.03;;;1.37;;
54145;SDS011;65909;49.422;7.738;2023-08-08T06:42:15;3.20;;;1.42;;
54145;SDS011;65909;49.422;7.738;2023-08-08T06:44:44;1.43;;;1.30;;
54145;SDS011;65909;49.422;7.738;2023-08-08T06:47:09;3.40;;;1.40;;
54145;SDS011;65909;49.422;7.738;2023-08-08T06:49:34;2.13;;;1.25;;
54145;SDS011;65909;49.422;7.738;2023-08-08T06:52:00;3.07;;;1.30;;
54145;SDS011;65909;49.422;7.738;2023-08-08T06:54:25;3.22;;;1.10;;
54145;SDS011;65909;49.422;7.738;2023-08-08T06:56:53;2.42;;;1.30;;
54145;SDS011;65909;49.422;7.738;2023-08-08T06:59:18;4.13;;;1.50;;
54145;SDS011;65909;49.422;7.738;2023-08-08T07:01:43;3.17;;;1.27;;
54145;SDS011;65909;49.422;7.738;2023-08-08T07:04:08;1.43;;;1.20;;
54145;SDS011;65909;49.422;7.738;2023-08-08T07:06:33;2.43;;;1.20;;
54145;SDS011;65909;49.422;7.738;2023-08-08T07:08:59;1.47;;;1.03;;
54145;SDS011;65909;49.422;7.738;2023-08-08T07:11:24;1.37;;;0.90;;
54145;SDS011;65909;49.422;7.738;2023-08-08T07:13:49;2.63;;;1.25;;
54145;SDS011;65909;49.422;7.738;2023-08-08T07:16:15;1.70;;;1.20;;
54145;SDS011;65909;49.422;7.738;2023-08-08T07:18:40;1.47;;;1.00;;
54145;SDS011;65909;49.422;7.738;2023-08-08T07:21:05;2.00;;;1.30;;
54145;SDS011;65909;49.422;7.738;2023-08-08T07:23:30;1.90;;;1.17;;
54145;SDS011;65909;49.422;7.738;2023-08-08T07:25:56;1.47;;;1.00;;
54145;SDS011;65909;49.422;7.738;2023-08-08T07:28:21;1.77;;;1.13;;
54145;SDS011;65909;49.422;7.738;2023-08-08T07:30:46;2.13;;;1.30;;
54145;SDS011;65909;49.422;7.738;2023-08-08T07:33:11;2.63;;;1.25;;
54145;SDS011;65909;49.422;7.738;2023-08-08T07:35:36;3.63;;;1.10;;
54145;SDS011;65909;49.422;7.738;2023-08-08T07:38:02;2.60;;;1.03;;
54145;SDS011;65909;49.422;7.738;2023-08-08T07:40:27;2.00;;;1.13;;
54145;SDS011;65909;49.422;7.738;2023-08-08T07:42:52;1.43;;;1.20;;
54145;SDS011;65909;49.422;7.738;2023-08-08T07:45:18;1.10;;;0.90;;
54145;SDS011;65909;49.422;7.738;2023-08-08T07:47:43;4.83;;;1.20;;
54145;SDS011;65909;49.422;7.738;2023-08-08T07:50:08;1.55;;;0.88;;
54145;SDS011;65909;49.422;7.738;2023-08-08T07:52:34;3.63;;;0.90;;
54145;SDS011;65909;49.422;7.738;2023-08-08T07:54:59;1.58;;;0.85;;
54145;SDS011;65909;49.422;7.738;2023-08-08T07:57:26;2.87;;;0.90;;
54145;SDS011;65909;49.422;7.738;2023-08-08T07:59:51;1.48;;;0.90;;
54145;SDS011;65909;49.422;7.738;2023-08-08T08:02:16;6.80;;;1.17;;
54145;SDS011;65909;49.422;7.738;2023-08-08T08:04:41;3.00;;;1.10;;
54145;SDS011;65909;49.422;7.738;2023-08-08T08:07:06;1.63;;;1.13;;
54145;SDS011;65909;49.422;7.738;2023-08-08T08:09:32;1.67;;;0.88;;
54145;SDS011;65909;49.422;7.738;2023-08-08T08:11:57;1.47;;;1.00;;
54145;SDS011;65909;49.422;7.738;2023-08-08T08:14:22;3.20;;;1.43;;
54145;SDS011;65909;49.422;7.738;2023-08-08T08:16:47;1.13;;;0.90;;
54145;SDS011;65909;49.422;7.738;2023-08-08T08:19:13;2.10;;;1.00;;
54145;SDS011;65909;49.422;7.738;2023-08-08T08:21:38;2.87;;;1.03;;
54145;SDS011;65909;49.422;7.738;2023-08-08T08:24:04;2.15;;;0.90;;
54145;SDS011;65909;49.422;7.738;2023-08-08T08:26:29;1.30;;;0.80;;
54145;SDS011;65909;49.422;7.738;2023-08-08T08:28:54;2.30;;;1.10;;
54145;SDS011;65909;49.422;7.738;2023-08-08T08:31:19;2.37;;;0.90;;
54145;SDS011;65909;49.422;7.738;2023-08-08T08:33:44;1.30;;;0.80;;
54145;SDS011;65909;49.422;7.738;2023-08-08T08:36:10;1.20;;;0.80;;
54145;SDS011;65909;49.422;7.738;2023-08-08T08:38:35;3.85;;;1.15;;
54145;SDS011;65909;49.422;7.738;2023-08-08T08:41:01;3.63;;;1.20;;
54145;SDS011;65909;49.422;7.738;2023-08-08T08:43:27;1.75;;;1.00;;
54145;SDS011;65909;49.422;7.738;2023-08-08T08:45:52;2.00;;;1.10;;
54145;SDS011;65909;49.422;7.738;2023-08-08T08:48:18;1.33;;;0.98;;
54145;SDS011;65909;49.422;7.738;2023-08-08T08:50:45;4.25;;;1.50;;
54145;SDS011;65909;49.422;7.738;2023-08-08T08:53:12;2.15;;;1.13;;
54145;SDS011;65909;49.422;7.738;2023-08-08T08:55:37;3.08;;;1.10;;
54145;SDS011;65909;49.422;7.738;2023-08-08T08:58:03;2.00;;;1.00;;
54145;SDS011;65909;49.422;7.738;2023-08-08T09:00:29;2.95;;;0.95;;
54145;SDS011;65909;49.422;7.738;2023-08-08T09:02:55;1.77;;;1.25;;
54145;SDS011;65909;49.422;7.738;2023-08-08T09:05:20;2.33;;;1.05;;
54145;SDS011;65909;49.422;7.738;2023-08-08T09:07:47;3.10;;;0.93;;
54145;SDS011;65909;49.422;7.738;2023-08-08T09:10:12;2.38;;;1.05;;
54145;SDS011;65909;49.422;7.738;2023-08-08T09:12:39;1.38;;;0.90;;
54145;SDS011;65909;49.422;7.738;2023-08-08T09:15:04;2.10;;;1.73;;
54145;SDS011;65909;49.422;7.738;2023-08-08T09:17:30;1.98;;;0.80;;
54145;SDS011;65909;49.422;7.738;2023-08-08T09:19:55;1.63;;;0.93;;
54145;SDS011;65909;49.422;7.738;2023-08-08T09:22:20;3.78;;;1.20;;
54145;SDS011;65909;49.422;7.738;2023-08-08T09:24:46;1.65;;;1.00;;
54145;SDS011;65909;49.422;7.738;2023-08-08T09:27:11;3.72;;;1.20;;
54145;SDS011;65909;49.422;7.738;2023-08-08T09:29:37;3.35;;;0.90;;
54145;SDS011;65909;49.422;7.738;2023-08-08T09:32:03;1.85;;;1.20;;
54145;SDS011;65909;49.422;7.738;2023-08-08T09:34:29;1.85;;;0.98;;
54145;SDS011;65909;49.422;7.738;2023-08-08T09:36:54;2.43;;;1.20;;
54145;SDS011;65909;49.422;7.738;2023-08-08T09:39:19;2.63;;;1.07;;
54145;SDS011;65909;49.422;7.738;2023-08-08T09:41:45;3.27;;;1.00;;
54145;SDS011;65909;49.422;7.738;2023-08-08T09:44:11;1.20;;;0.90;;
54145;SDS011;65909;49.422;7.738;2023-08-08T09:46:36;1.55;;;1.02;;
54145;SDS011;65909;49.422;7.738;2023-08-08T09:49:02;1.58;;;0.68;;
54145;SDS011;65909;49.422;7.738;2023-08-08T09:51:28;2.53;;;0.90;;
54145;SDS011;65909;49.422;7.738;2023-08-08T09:53:54;1.25;;;0.80;;
54145;SDS011;65909;49.422;7.738;2023-08-08T09:56:20;1.95;;;1.17;;
54145;SDS011;65909;49.422;7.738;2023-08-08T09:58:45;3.58;;;0.90;;
54145;SDS011;65909;49.422;7.738;2023-08-08T10:01:11;2.72;;;1.10;;
54145;SDS011;65909;49.422;7.738;2023-08-08T10:03:37;2.42;;;1.35;;
54145;SDS011;65909;49.422;7.738;2023-08-08T10:06:03;1.00;;;0.90;;
54145;SDS011;65909;49.422;7.738;2023-08-08T10:08:28;1.60;;;0.90;;
54145;SDS011;65909;49.422;7.738;2023-08-08T10:10:54;1.95;;;1.10;;
54145;SDS011;65909;49.422;7.738;2023-08-08T10:13:24;1.95;;;1.20;;
54145;SDS011;65909;49.422;7.738;2023-08-08T10:15:50;3.40;;;1.02;;
54145;SDS011;65909;49.422;7.738;2023-08-08T10:18:16;2.10;;;1.00;;
54145;SDS011;65909;49.422;7.738;2023-08-08T10:20:42;1.50;;;0.90;;
54145;SDS011;65909;49.422;7.738;2023-08-08T10:23:07;3.40;;;1.00;;
54145;SDS011;65909;49.422;7.738;2023-08-08T10:25:32;1.00;;;0.80;;
54145;SDS011;65909;49.422;7.738;2023-08-08T10:28:04;0.80;;;0.80;;
54145;SDS011;65909;49.422;7.738;2023-08-08T10:30:41;1.27;;;1.05;;
54145;SDS011;65909;49.422;7.738;2023-08-08T10:33:06;2.90;;;1.30;;
54145;SDS011;65909;49.422;7.738;2023-08-08T10:35:40;3.55;;;1.10;;
54145;SDS011;65909;49.422;7.738;2023-08-08T10:38:08;3.90;;;1.20;;
54145;SDS011;65909;49.422;7.738;2023-08-08T10:40:33;1.63;;;1.00;;
54145;SDS011;65909;49.422;7.738;2023-08-08T10:42:58;2.90;;;1.10;;
54145;SDS011;65909;49.422;7.738;2023-08-08T10:45:28;5.20;;;1.27;;
54145;SDS011;65909;49.422;7.738;2023-08-08T10:47:53;1.35;;;1.00;;
54145;SDS011;65909;49.422;7.738;2023-08-08T10:50:22;1.10;;;0.77;;
54145;SDS011;65909;49.422;7.738;2023-08-08T10:52:53;1.25;;;0.80;;
54145;SDS011;65909;49.422;7.738;2023-08-08T10:55:19;3.08;;;1.08;;
54145;SDS011;65909;49.422;7.738;2023-08-08T10:57:51;2.15;;;0.93;;
54145;SDS011;65909;49.422;7.738;2023-08-08T11:00:17;1.33;;;0.98;;
54145;SDS011;65909;49.422;7.738;2023-08-08T11:02:43;2.17;;;0.90;;
54145;SDS011;65909;49.422;7.738;2023-08-08T11:05:09;3.08;;;1.30;;
54145;SDS011;65909;49.422;7.738;2023-08-08T11:07:34;3.13;;;1.20;;
54145;SDS011;65909;49.422;7.738;2023-08-08T11:10:01;2.40;;;1.05;;
54145;SDS011;65909;49.422;7.738;2023-08-08T11:12:26;1.75;;;1.08;;
54145;SDS011;65909;49.422;7.738;2023-08-08T11:14:51;1.87;;;1.07;;
54145;SDS011;65909;49.422;7.738;2023-08-08T11:17:17;1.83;;;1.00;;
54145;SDS011;65909;49.422;7.738;2023-08-08T11:19:43;4.90;;;1.23;;
54145;SDS011;65909;49.422;7.738;2023-08-08T11:22:11;2.87;;;1.30;;
54145;SDS011;65909;49.422;7.738;2023-08-08T11:24:36;1.75;;;1.10;;
54145;SDS011;65909;49.422;7.738;2023-08-08T11:27:02;2.78;;;1.20;;
54145;SDS011;65909;49.422;7.738;2023-08-08T11:29:27;2.50;;;1.00;;
54145;SDS011;65909;49.422;7.738;2023-08-08T11:31:56;4.50;;;1.10;;
54145;SDS011;65909;49.422;7.738;2023-08-08T11:34:21;3.45;;;1.10;;
54145;SDS011;65909;49.422;7.738;2023-08-08T11:36:46;1.83;;;0.93;;
54145;SDS011;65909;49.422;7.738;2023-08-08T11:39:12;2.28;;;1.10;;
54145;SDS011;65909;49.422;7.738;2023-08-08T11:41:37;1.80;;;0.90;;
54145;SDS011;65909;49.422;7.738;2023-08-08T11:44:04;1.88;;;0.82;;
54145;SDS011;65909;49.422;7.738;2023-08-08T11:46:29;1.90;;;1.10;;
54145;SDS011;65909;49.422;7.738;2023-08-08T11:49:01;1.98;;;1.00;;
54145;SDS011;65909;49.422;7.738;2023-08-08T11:51:26;1.88;;;0.90;;
54145;SDS011;65909;49.422;7.738;2023-08-08T11:53:52;4.20;;;1.17;;
54145;SDS011;65909;49.422;7.738;2023-08-08T11:56:21;1.48;;;0.90;;
54145;SDS011;65909;49.422;7.738;2023-08-08T11:58:49;2.17;;;0.98;;
54145;SDS011;65909;49.422;7.738;2023-08-08T12:01:15;2.92;;;0.95;;
54145;SDS011;65909;49.422;7.738;2023-08-08T12:03:40;1.40;;;0.90;;
54145;SDS011;65909;49.422;7.738;2023-08-08T12:06:13;2.05;;;0.90;;
54145;SDS011;65909;49.422;7.738;2023-08-08T12:08:38;1.75;;;1.20;;
54145;SDS011;65909;49.422;7.738;2023-08-08T12:11:05;4.00;;;1.00;;
54145;SDS011;65909;49.422;7.738;2023-08-08T12:13:30;2.75;;;1.35;;
54145;SDS011;65909;49.422;7.738;2023-08-08T12:15:56;1.90;;;1.10;;
54145;SDS011;65909;49.422;7.738;2023-08-08T12:18:23;1.95;;;1.20;;
54145;SDS011;65909;49.422;7.738;2023-08-08T12:20:48;2.23;;;1.00;;
54145;SDS011;65909;49.422;7.738;2023-08-08T12:23:14;1.67;;;1.03;;
54145;SDS011;65909;49.422;7.738;2023-08-08T12:25:39;1.77;;;1.00;;
54145;SDS011;65909;49.422;7.738;2023-08-08T12:28:04;2.70;;;1.15;;
54145;SDS011;65909;49.422;7.738;2023-08-08T12:30:30;2.00;;;1.10;;
54145;SDS011;65909;49.422;7.738;2023-08-08T12:32:55;3.97;;;1.10;;
54145;SDS011;65909;49.422;7.738;2023-08-08T12:35:20;2.03;;;1.00;;
54145;SDS011;65909;49.422;7.738;2023-08-08T12:37:46;1.75;;;1.00;;
54145;SDS011;65909;49.422;7.738;2023-08-08T12:40:11;2.05;;;1.15;;
54145;SDS011;65909;49.422;7.738;2023-08-08T12:42:36;2.70;;;1.40;;
54145;SDS011;65909;49.422;7.738;2023-08-08T12:45:02;2.17;;;1.20;;
54145;SDS011;65909;49.422;7.738;2023-08-08T12:47:28;2.53;;;1.10;;
54145;SDS011;65909;49.422;7.738;2023-08-08T12:49:54;3.00;;;1.13;;
54145;SDS011;65909;49.422;7.738;2023-08-08T12:52:19;3.50;;;1.77;;
54145;SDS011;65909;49.422;7.738;2023-08-08T12:54:44;1.60;;;0.90;;
54145;SDS011;65909;49.422;7.738;2023-08-08T12:57:10;2.53;;;0.90;;
54145;SDS011;65909;49.422;7.738;2023-08-08T12:59:35;0.80;;;0.80;;
54145;SDS011;65909;49.422;7.738;2023-08-08T13:02:00;3.90;;;1.13;;
54145;SDS011;65909;49.422;7.738;2023-08-08T13:04:25;1.20;;;0.93;;
54145;SDS011;65909;49.422;7.738;2023-08-08T13:06:50;2.00;;;1.00;;
54145;SDS011;65909;49.422;7.738;2023-08-08T13:09:15;3.03;;;1.20;;
54145;SDS011;65909;49.422;7.738;2023-08-08T13:11:41;2.67;;;1.63;;
54145;SDS011;65909;49.422;7.738;2023-08-08T13:14:06;2.15;;;1.10;;
54145;SDS011;65909;49.422;7.738;2023-08-08T13:16:32;2.90;;;1.40;;
54145;SDS011;65909;49.422;7.738;2023-08-08T13:18:57;2.00;;;1.20;;
54145;SDS011;65909;49.422;7.738;2023-08-08T13:21:22;2.30;;;1.43;;
54145;SDS011;65909;49.422;7.738;2023-08-08T13:23:47;2.20;;;0.97;;
54145;SDS011;65909;49.422;7.738;2023-08-08T13:26:13;3.43;;;0.90;;
54145;SDS011;65909;49.422;7.738;2023-08-08T13:28:38;2.83;;;1.03;;
54145;SDS011;65909;49.422;7.738;2023-08-08T13:31:04;1.75;;;1.00;;
54145;SDS011;65909;49.422;7.738;2023-08-08T13:33:29;1.60;;;1.00;;
54145;SDS011;65909;49.422;7.738;2023-08-08T13:35:54;1.80;;;0.90;;
54145;SDS011;65909;49.422;7.738;2023-08-08T13:38:19;1.67;;;0.90;;
54145;SDS011;65909;49.422;7.738;2023-08-08T13:40:44;2.57;;;1.10;;
54145;SDS011;65909;49.422;7.738;2023-08-08T13:43:10;3.50;;;1.20;;
54145;SDS011;65909;49.422;7.738;2023-08-08T13:45:35;1.60;;;1.00;;
54145;SDS011;65909;49.422;7.738;2023-08-08T13:48:00;2.08;;;1.30;;
54145;SDS011;65909;49.422;7.738;2023-08-08T13:50:26;1.42;;;0.88;;
54145;SDS011;65909;49.422;7.738;2023-08-08T13:52:51;2.17;;;1.30;;
54145;SDS011;65909;49.422;7.738;2023-08-08T13:55:18;2.38;;;0.98;;
54145;SDS011;65909;49.422;7.738;2023-08-08T13:57:43;1.57;;;1.00;;
54145;SDS011;65909;49.422;7.738;2023-08-08T14:00:09;2.17;;;1.13;;
54145;SDS011;65909;49.422;7.738;2023-08-08T14:02:36;3.80;;;0.90;;
54145;SDS011;65909;49.422;7.738;2023-08-08T14:05:01;2.30;;;1.70;;
54145;SDS011;65909;49.422;7.738;2023-08-08T14:07:26;2.03;;;0.82;;
54145;SDS011;65909;49.422;7.738;2023-08-08T14:09:52;1.95;;;1.13;;
54145;SDS011;65909;49.422;7.738;2023-08-08T14:12:18;1.77;;;0.80;;
54145;SDS011;65909;49.422;7.738;2023-08-08T14:14:43;2.10;;;1.20;;
54145;SDS011;65909;49.422;7.738;2023-08-08T14:17:08;2.77;;;1.00;;
54145;SDS011;65909;49.422;7.738;2023-08-08T14:19:33;2.10;;;1.10;;
54145;SDS011;65909;49.422;7.738;2023-08-08T14:21:58;3.17;;;0.93;;
54145;SDS011;65909;49.422;7.738;2023-08-08T14:24:23;1.47;;;0.77;;
54145;SDS011;65909;49.422;7.738;2023-08-08T14:26:49;1.30;;;0.80;;
54145;SDS011;65909;49.422;7.738;2023-08-08T14:29:14;1.20;;;0.90;;
54145;SDS011;65909;49.422;7.738;2023-08-08T14:31:39;2.30;;;1.00;;
54145;SDS011;65909;49.422;7.738;2023-08-08T14:34:04;2.87;;;1.10;;
54145;SDS011;65909;49.422;7.738;2023-08-08T14:36:29;1.80;;;0.80;;
54145;SDS011;65909;49.422;7.738;2023-08-08T14:38:55;1.97;;;0.90;;